createdAt,value
2023-03-05T00:01:55.534Z,94.54
2023-03-05T00:04:23.493Z,95.39
2023-03-05T00:06:50.112Z,94.74
2023-03-05T00:09:16.968Z,93.45
2023-03-05T00:11:44.098Z,95.23
2023-03-05T00:14:11.086Z,94.72
2023-03-05T00:16:37.655Z,93.95
2023-03-05T00:19:04.346Z,94.95
2023-03-05T00:21:34.061Z,94.30
2023-03-05T00:24:02.648Z,94.86
2023-03-05T00:26:31.080Z,94.49
2023-03-05T00:28:58.581Z,94.62
2023-03-05T00:31:30.566Z,95.68
2023-03-05T00:34:00.381Z,95.83
2023-03-05T00:36:28.307Z,95.85
2023-03-05T00:38:55.148Z,94.20
2023-03-05T00:41:21.828Z,94.91
2023-03-05T00:43:48.615Z,95.61
2023-03-05T00:46:15.534Z,96.33
2023-03-05T00:48:42.185Z,96.41
2023-03-05T00:51:09.318Z,96.54
2023-03-05T00:53:36.018Z,96.21
2023-03-05T00:56:02.613Z,95.95
2023-03-05T00:58:29.820Z,95.60
2023-03-05T01:01:01.512Z,94.96
2023-03-05T01:03:29.251Z,96.36
2023-03-05T01:05:55.983Z,96.49
2023-03-05T01:08:22.695Z,96.64
2023-03-05T01:10:49.254Z,97.07
2023-03-05T01:13:15.986Z,96.69
2023-03-05T01:15:42.549Z,96.00
2023-03-05T01:18:09.280Z,95.22
2023-03-05T01:20:36.444Z,94.83
2023-03-05T01:23:03.240Z,94.83
2023-03-05T01:25:29.880Z,96.61
2023-03-05T01:27:56.872Z,98.26
2023-03-05T01:30:23.581Z,98.38
2023-03-05T01:32:50.272Z,98.29
2023-03-05T01:35:20.532Z,98.17
2023-03-05T01:37:47.439Z,98.59
2023-03-05T01:40:16.920Z,99.03
2023-03-05T01:42:48.785Z,98.37
2023-03-05T01:45:18.033Z,98.22
2023-03-05T01:47:45.376Z,98.71
2023-03-05T01:50:17.465Z,98.67
2023-03-05T01:52:48.931Z,99.37
2023-03-05T01:55:19.824Z,99.85
2023-03-05T01:57:53.942Z,100.00
2023-03-05T02:00:26.427Z,100.00
2023-03-05T02:02:53.538Z,100.00
2023-03-05T02:05:27.048Z,100.00
2023-03-05T02:07:59.117Z,100.00
2023-03-05T02:10:28.794Z,100.00
2023-03-05T02:12:58.655Z,100.00
2023-03-05T02:15:25.393Z,100.00
2023-03-05T02:17:52.120Z,100.00
2023-03-05T02:20:22.755Z,100.00
2023-03-05T02:22:49.371Z,100.00
2023-03-05T02:25:21.866Z,100.00
2023-03-05T02:28:14.770Z,100.00
2023-03-05T02:30:41.368Z,100.00
2023-03-05T02:33:07.968Z,100.00
2023-03-05T02:35:34.554Z,100.00
2023-03-05T02:38:01.141Z,100.00
2023-03-05T02:40:27.950Z,100.00
2023-03-05T02:42:54.540Z,100.00
2023-03-05T02:45:21.497Z,100.00
2023-03-05T02:47:48.085Z,99.94
2023-03-05T02:50:14.682Z,99.84
2023-03-05T02:52:41.345Z,100.00
2023-03-05T02:55:08.365Z,100.00
2023-03-05T02:57:34.917Z,100.00
2023-03-05T03:00:01.584Z,100.00
2023-03-05T03:02:28.213Z,100.00
2023-03-05T03:04:54.860Z,100.00
2023-03-05T03:07:21.436Z,100.00
2023-03-05T03:09:48.093Z,100.00
2023-03-05T03:12:14.958Z,100.00
2023-03-05T03:14:42.680Z,100.00
2023-03-05T03:17:12.366Z,100.00
2023-03-05T03:19:40.126Z,100.00
2023-03-05T03:22:09.038Z,100.00
2023-03-05T03:24:36.924Z,100.00
2023-03-05T03:27:03.997Z,100.00
2023-03-05T03:29:31.309Z,100.00
2023-03-05T03:31:58.645Z,100.00
2023-03-05T03:34:25.998Z,100.00
2023-03-05T03:36:55.350Z,100.00
2023-03-05T03:39:22.380Z,100.00
2023-03-05T03:41:51.397Z,100.00
2023-03-05T03:44:19.656Z,100.00
2023-03-05T03:46:48.532Z,100.00
2023-03-05T03:49:19.181Z,100.00
2023-03-05T03:51:46.442Z,100.00
2023-03-05T03:54:14.495Z,100.00
2023-03-05T03:56:41.110Z,100.00
2023-03-05T03:59:08.404Z,100.00
2023-03-05T04:01:35.037Z,100.00
2023-03-05T04:04:01.772Z,100.00
2023-03-05T04:06:28.385Z,100.00
2023-03-05T04:08:54.983Z,100.00
2023-03-05T04:11:21.705Z,100.00
2023-03-05T04:13:48.850Z,100.00
2023-03-05T04:16:16.366Z,100.00
2023-03-05T04:18:44.194Z,100.00
2023-03-05T04:21:11.537Z,100.00
2023-03-05T04:23:39.335Z,100.00
2023-03-05T04:26:06.450Z,100.00
2023-03-05T04:28:33.391Z,100.00
2023-03-05T04:30:59.992Z,100.00
2023-03-05T04:33:26.551Z,100.00
2023-03-05T04:35:53.172Z,100.00
2023-03-05T04:38:19.769Z,100.00
2023-03-05T04:40:47.303Z,100.00
2023-03-05T04:43:14.030Z,100.00
2023-03-05T04:45:42.393Z,100.00
2023-03-05T04:48:10.788Z,100.00
2023-03-05T04:50:37.760Z,100.00
2023-03-05T04:53:04.456Z,100.00
2023-03-05T04:55:31.163Z,99.41
2023-03-05T04:57:57.946Z,98.67
2023-03-05T05:00:25.232Z,98.83
2023-03-05T05:02:53.362Z,98.26
2023-03-05T05:05:23.437Z,98.08
2023-03-05T05:07:50.270Z,98.41
2023-03-05T05:10:17.461Z,99.50
2023-03-05T05:12:44.062Z,100.00
2023-03-05T05:15:12.796Z,100.00
2023-03-05T05:17:39.392Z,100.00
2023-03-05T05:20:06.855Z,100.00
2023-03-05T05:22:34.601Z,100.00
2023-03-05T05:25:01.311Z,100.00
2023-03-05T05:27:28.123Z,100.00
2023-03-05T05:29:54.712Z,100.00
2023-03-05T05:32:24.051Z,100.00
2023-03-05T05:34:58.223Z,100.00
2023-03-05T05:37:26.265Z,100.00
2023-03-05T05:39:53.292Z,100.00
2023-03-05T05:42:24.505Z,100.00
2023-03-05T05:44:51.605Z,100.00
2023-03-05T05:47:18.893Z,100.00
2023-03-05T05:49:45.667Z,100.00
2023-03-05T05:52:13.304Z,100.00
2023-03-05T05:54:40.243Z,100.00
2023-03-05T05:57:07.379Z,100.00
2023-03-05T05:59:34.017Z,100.00
2023-03-05T06:02:00.698Z,100.00
2023-03-05T06:04:27.261Z,100.00
2023-03-05T06:06:53.737Z,100.00
2023-03-05T06:09:20.705Z,100.00
2023-03-05T06:11:47.642Z,100.00
2023-03-05T06:14:14.400Z,100.00
2023-03-05T06:16:41.227Z,100.00
2023-03-05T06:19:11.478Z,100.00
2023-03-05T06:21:38.084Z,100.00
2023-03-05T06:24:05.019Z,100.00
2023-03-05T06:26:31.548Z,100.00
2023-03-05T06:28:59.180Z,100.00
2023-03-05T06:31:27.449Z,100.00
2023-03-05T06:33:56.613Z,100.00
2023-03-05T06:36:25.249Z,100.00
2023-03-05T06:38:53.408Z,100.00
2023-03-05T06:41:26.215Z,100.00
2023-03-05T06:43:53.215Z,99.92
2023-03-05T06:46:28.612Z,99.22
2023-03-05T06:48:57.272Z,98.34
2023-03-05T06:51:29.805Z,96.47
2023-03-05T06:53:59.460Z,95.67
2023-03-05T06:56:26.156Z,92.69
2023-03-05T06:58:53.253Z,89.79
2023-03-05T07:01:21.261Z,84.71
2023-03-05T07:03:54.610Z,82.53
2023-03-05T07:06:22.500Z,77.91
2023-03-05T07:08:49.587Z,76.28
2023-03-05T07:11:19.224Z,74.37
2023-03-05T07:13:49.212Z,73.18
2023-03-05T07:16:19.072Z,70.80
2023-03-05T07:18:46.483Z,70.28
2023-03-05T07:21:19.386Z,68.76
2023-03-05T07:23:46.159Z,68.56
2023-03-05T07:26:12.833Z,69.17
2023-03-05T07:28:39.452Z,70.07
2023-03-05T07:31:11.547Z,66.37
2023-03-05T07:33:38.203Z,67.79
2023-03-05T07:36:07.419Z,68.24
2023-03-05T07:38:33.990Z,66.34
2023-03-05T07:41:13.437Z,67.62
2023-03-05T07:43:40.868Z,68.59
2023-03-05T07:46:09.706Z,66.73
2023-03-05T07:48:36.422Z,65.83
2023-03-05T07:51:09.225Z,67.93
2023-03-05T07:53:35.894Z,66.62
2023-03-05T07:56:02.985Z,63.03
2023-03-05T07:58:29.517Z,64.86
2023-03-05T08:00:56.021Z,67.10
2023-03-05T08:03:22.555Z,63.50
2023-03-05T08:05:49.209Z,62.74
2023-03-05T08:08:16.500Z,66.59
2023-03-05T08:10:43.070Z,63.05
2023-03-05T08:13:09.851Z,59.41
2023-03-05T08:15:39.508Z,58.42
2023-03-05T08:18:06.303Z,59.57
2023-03-05T08:20:35.678Z,64.16
2023-03-05T08:23:03.284Z,57.44
2023-03-05T08:25:29.857Z,61.00
2023-03-05T08:27:57.017Z,58.03
2023-03-05T08:30:27.141Z,60.28
2023-03-05T08:32:54.660Z,55.59
2023-03-05T08:35:21.473Z,54.30
2023-03-05T08:37:48.524Z,60.39
2023-03-05T08:40:17.941Z,59.03
2023-03-05T08:42:45.087Z,59.18
2023-03-05T08:45:12.126Z,55.66
2023-03-05T08:47:38.710Z,55.52
2023-03-05T08:50:05.705Z,60.78
2023-03-05T08:52:32.249Z,53.66
2023-03-05T08:54:58.868Z,62.20
2023-03-05T08:57:25.429Z,54.22
2023-03-05T08:59:52.014Z,53.89
2023-03-05T09:02:18.634Z,53.01
2023-03-05T09:04:45.232Z,54.45
2023-03-05T09:07:12.953Z,52.77
2023-03-05T09:09:40.363Z,54.35
2023-03-05T09:12:07.195Z,61.01
2023-03-05T09:14:33.811Z,51.75
2023-03-05T09:17:02.055Z,55.44
2023-03-05T09:19:28.620Z,58.39
2023-03-05T09:21:56.970Z,59.53
2023-03-05T09:24:23.505Z,50.95
2023-03-05T09:26:50.163Z,53.81
2023-03-05T09:29:16.773Z,51.86
2023-03-05T09:31:44.141Z,52.38
2023-03-05T09:34:11.816Z,53.50
2023-03-05T09:36:38.664Z,51.10
2023-03-05T09:39:07.007Z,55.71
2023-03-05T09:41:52.303Z,53.32
2023-03-05T09:44:27.746Z,52.96
2023-03-05T09:46:56.899Z,51.81
2023-03-05T09:49:38.391Z,51.51
2023-03-05T09:52:16.683Z,53.00
2023-03-05T09:54:48.045Z,53.17
2023-03-05T09:57:22.174Z,52.28
2023-03-05T09:59:54.152Z,50.14
2023-03-05T10:02:34.110Z,49.73
2023-03-05T10:05:20.528Z,49.31
2023-03-05T10:07:57.651Z,49.55
2023-03-05T10:10:47.682Z,48.84
2023-03-05T10:13:24.397Z,51.23
2023-03-05T10:16:25.455Z,50.86
2023-03-05T10:19:16.853Z,49.34
2023-03-05T10:21:53.534Z,48.86
2023-03-05T10:24:36.515Z,46.95
2023-03-05T10:27:09.980Z,45.96
2023-03-05T10:29:36.560Z,46.74
2023-03-05T10:32:21.874Z,47.82
2023-03-05T10:34:57.267Z,47.43
2023-03-05T10:37:32.954Z,48.84
2023-03-05T10:39:59.448Z,48.92
2023-03-05T10:42:51.916Z,46.62
2023-03-05T10:45:22.986Z,46.97
2023-03-05T10:48:03.408Z,45.44
2023-03-05T10:50:53.706Z,44.75
2023-03-05T10:53:45.146Z,48.19
2023-03-05T10:56:12.578Z,47.90
2023-03-05T10:58:39.348Z,48.55
2023-03-05T11:01:22.126Z,46.72
2023-03-05T11:03:56.702Z,47.96
2023-03-05T11:06:47.551Z,46.97
2023-03-05T11:09:18.285Z,49.47
2023-03-05T11:12:04.697Z,47.45
2023-03-05T11:14:33.667Z,46.79
2023-03-05T11:17:24.177Z,47.43
2023-03-05T11:19:50.962Z,49.01
2023-03-05T11:22:22.646Z,48.48
2023-03-05T11:25:15.574Z,47.14
2023-03-05T11:27:50.431Z,50.12
2023-03-05T11:30:24.668Z,48.30
2023-03-05T11:33:10.273Z,46.73
2023-03-05T11:35:40.241Z,48.77
2023-03-05T11:38:16.895Z,46.77
2023-03-05T11:40:43.725Z,47.12
2023-03-05T11:43:16.229Z,45.57
2023-03-05T11:45:44.199Z,47.47
2023-03-05T11:48:25.280Z,48.08
2023-03-05T11:50:56.973Z,49.26
2023-03-05T11:53:35.578Z,48.81
2023-03-05T11:56:01.908Z,47.58
2023-03-05T11:58:46.770Z,48.21
2023-03-05T12:01:25.274Z,47.79
2023-03-05T12:03:53.033Z,50.35
2023-03-05T12:06:40.943Z,49.48
2023-03-05T12:09:13.726Z,50.22
2023-03-05T12:11:40.915Z,49.29
2023-03-05T12:14:32.892Z,47.27
2023-03-05T12:17:37.934Z,48.06
2023-03-05T12:20:15.749Z,48.65
2023-03-05T12:22:44.654Z,49.23
2023-03-05T12:25:34.363Z,49.76
2023-03-05T12:28:02.290Z,50.63
2023-03-05T12:30:34.764Z,49.48
2023-03-05T12:33:03.359Z,49.54
2023-03-05T12:35:36.851Z,49.08
2023-03-05T12:38:29.025Z,48.60
2023-03-05T12:41:23.380Z,49.57
2023-03-05T12:44:05.089Z,48.38
2023-03-05T12:46:43.165Z,49.40
2023-03-05T12:49:19.072Z,48.55
2023-03-05T12:51:48.086Z,48.68
2023-03-05T12:54:26.940Z,47.61
2023-03-05T12:56:56.814Z,48.42
2023-03-05T12:59:25.973Z,47.82
2023-03-05T13:01:58.139Z,48.55
2023-03-05T13:04:31.836Z,49.00
2023-03-05T13:07:13.671Z,50.09
2023-03-05T13:09:40.377Z,49.23
2023-03-05T13:12:14.112Z,49.82
2023-03-05T13:14:45.481Z,49.86
2023-03-05T13:17:34.563Z,50.67
2023-03-05T13:20:06.084Z,50.15
2023-03-05T13:22:33.027Z,50.16
2023-03-05T13:25:15.002Z,48.38
2023-03-05T13:27:42.440Z,49.15
2023-03-05T13:30:28.155Z,48.84
2023-03-05T13:33:03.551Z,48.69
2023-03-05T13:35:33.778Z,49.22
2023-03-05T13:38:02.143Z,49.45
2023-03-05T13:40:31.114Z,49.45
2023-03-05T13:43:12.053Z,48.98
2023-03-05T13:45:43.836Z,49.55
2023-03-05T13:48:20.021Z,49.78
2023-03-05T13:50:46.612Z,49.17
2023-03-05T13:53:31.949Z,48.55
2023-03-05T13:56:02.202Z,48.69
2023-03-05T13:58:58.043Z,49.85
2023-03-05T14:01:27.460Z,50.66
2023-03-05T14:03:57.356Z,50.50
2023-03-05T14:06:27.184Z,50.06
2023-03-05T14:09:07.117Z,49.64
2023-03-05T14:11:35.511Z,49.56
2023-03-05T14:14:09.730Z,49.51
2023-03-05T14:16:36.988Z,49.50
2023-03-05T14:19:09.222Z,49.49
2023-03-05T14:21:48.144Z,49.38
2023-03-05T14:24:22.753Z,49.59
2023-03-05T14:27:14.114Z,48.09
2023-03-05T14:29:46.241Z,49.45
2023-03-05T14:32:28.276Z,49.80
2023-03-05T14:34:58.254Z,50.15
2023-03-05T14:37:32.532Z,50.20
2023-03-05T14:40:07.338Z,49.66
2023-03-05T14:42:38.725Z,49.96
2023-03-05T14:45:14.015Z,51.02
2023-03-05T14:47:41.217Z,49.93
2023-03-05T14:50:14.811Z,49.79
2023-03-05T14:52:41.432Z,49.49
2023-03-05T14:55:13.619Z,50.89
2023-03-05T14:57:40.255Z,51.25
2023-03-05T15:00:16.223Z,50.23
2023-03-05T15:02:42.773Z,50.88
2023-03-05T15:05:09.621Z,50.86
2023-03-05T15:07:36.970Z,50.96
2023-03-05T15:10:04.713Z,50.67
2023-03-05T15:12:31.250Z,50.83
2023-03-05T15:14:57.843Z,51.17
2023-03-05T15:17:37.824Z,52.22
2023-03-05T15:20:10.250Z,51.17
2023-03-05T15:22:37.326Z,51.29
2023-03-05T15:25:04.391Z,52.07
2023-03-05T15:27:30.976Z,52.39
2023-03-05T15:29:59.017Z,52.05
2023-03-05T15:32:30.633Z,53.13
2023-03-05T15:34:58.427Z,52.37
2023-03-05T15:37:26.039Z,52.98
2023-03-05T15:39:53.157Z,52.40
2023-03-05T15:42:19.712Z,52.34
2023-03-05T15:44:46.339Z,52.22
2023-03-05T15:47:12.889Z,52.30
2023-03-05T15:49:39.405Z,52.19
2023-03-05T15:52:06.111Z,52.85
2023-03-05T15:54:32.827Z,53.06
2023-03-05T15:56:59.401Z,53.48
2023-03-05T15:59:26.703Z,53.40
2023-03-05T16:01:53.388Z,53.31
2023-03-05T16:04:20.005Z,52.79
2023-03-05T16:06:49.481Z,53.47
2023-03-05T16:09:17.674Z,53.85
2023-03-05T16:11:48.070Z,54.56
2023-03-05T16:14:19.409Z,53.96
2023-03-05T16:16:46.239Z,54.58
2023-03-05T16:19:16.419Z,54.90
2023-03-05T16:21:43.107Z,53.95
2023-03-05T16:24:09.682Z,54.47
2023-03-05T16:26:38.002Z,55.16
2023-03-05T16:29:05.166Z,55.90
2023-03-05T16:31:44.961Z,55.85
2023-03-05T16:34:14.100Z,56.62
2023-03-05T16:36:45.952Z,56.63
2023-03-05T16:39:12.474Z,56.68
2023-03-05T16:41:39.514Z,57.21
2023-03-05T16:44:06.353Z,57.42
2023-03-05T16:46:35.100Z,58.03
2023-03-05T16:49:02.033Z,58.63
2023-03-05T16:51:36.294Z,59.01
2023-03-05T16:54:03.777Z,59.62
2023-03-05T16:56:30.577Z,58.90
2023-03-05T16:58:57.411Z,59.77
2023-03-05T17:01:25.422Z,59.32
2023-03-05T17:03:53.832Z,59.66
2023-03-05T17:06:26.482Z,60.11
2023-03-05T17:08:55.155Z,60.84
2023-03-05T17:11:22.294Z,62.36
2023-03-05T17:13:49.223Z,61.80
2023-03-05T17:16:17.643Z,61.82
2023-03-05T17:18:45.473Z,62.72
2023-03-05T17:21:12.370Z,63.49
2023-03-05T17:23:40.270Z,64.27
2023-03-05T17:26:09.893Z,64.29
2023-03-05T17:28:36.974Z,63.85
2023-03-05T17:31:04.042Z,63.43
2023-03-05T17:33:36.093Z,64.34
2023-03-05T17:36:03.903Z,64.29
2023-03-05T17:38:30.650Z,64.90
2023-03-05T17:40:57.475Z,65.17
2023-03-05T17:43:24.406Z,64.17
2023-03-05T17:45:51.149Z,64.76
2023-03-05T17:48:17.792Z,65.30
2023-03-05T17:50:45.146Z,66.68
2023-03-05T17:53:12.461Z,66.63
2023-03-05T17:55:40.015Z,66.02
2023-03-05T17:58:06.958Z,67.90
2023-03-05T18:00:33.800Z,67.95
2023-03-05T18:03:00.750Z,67.54
2023-03-05T18:05:28.959Z,69.04
2023-03-05T18:07:56.651Z,70.06
2023-03-05T18:10:25.442Z,70.37
2023-03-05T18:12:52.444Z,70.36
2023-03-05T18:15:21.391Z,70.27
2023-03-05T18:17:47.837Z,72.21
2023-03-05T18:20:36.513Z,72.60
2023-03-05T18:23:05.177Z,73.37
2023-03-05T18:25:32.036Z,73.35
2023-03-05T18:28:04.984Z,73.96
2023-03-05T18:30:32.422Z,73.66
2023-03-05T18:32:59.431Z,73.22
2023-03-05T18:35:26.151Z,72.92
2023-03-05T18:37:53.540Z,73.78
2023-03-05T18:40:23.509Z,73.54
2023-03-05T18:42:50.918Z,73.70
2023-03-05T18:45:20.232Z,74.12
2023-03-05T18:47:47.957Z,73.72
2023-03-05T18:50:18.481Z,73.94
2023-03-05T18:52:45.414Z,73.97
2023-03-05T18:55:21.543Z,74.36
2023-03-05T18:57:49.139Z,74.90
2023-03-05T19:00:18.649Z,75.59
2023-03-05T19:02:45.289Z,76.19
2023-03-05T19:05:13.844Z,77.34
2023-03-05T19:07:40.620Z,76.03
2023-03-05T19:10:09.862Z,76.40
2023-03-05T19:13:39.996Z,77.41
2023-03-05T19:16:12.408Z,77.52
2023-03-05T19:19:25.449Z,78.21
2023-03-05T19:21:55.228Z,78.03
2023-03-05T19:24:23.309Z,79.02
2023-03-05T19:26:55.037Z,78.78
2023-03-05T19:29:26.266Z,78.91
2023-03-05T19:31:53.684Z,78.61
2023-03-05T19:34:21.145Z,78.18
2023-03-05T19:36:48.055Z,78.20
2023-03-05T19:39:15.627Z,79.08
2023-03-05T19:41:42.386Z,78.95
2023-03-05T19:44:08.945Z,79.02
2023-03-05T19:46:35.611Z,79.66
2023-03-05T19:49:02.203Z,79.20
2023-03-05T19:51:29.180Z,79.28
2023-03-05T19:54:00.005Z,78.70
2023-03-05T19:56:27.079Z,79.20
2023-03-05T19:58:53.622Z,78.55
2023-03-05T20:01:26.028Z,79.32
2023-03-05T20:03:58.690Z,79.77
2023-03-05T20:06:26.746Z,79.93
2023-03-05T20:08:53.893Z,78.95
2023-03-05T20:11:21.795Z,79.63
2023-03-05T20:13:49.650Z,79.17
2023-03-05T20:16:25.378Z,79.40
2023-03-05T20:18:54.841Z,79.01
2023-03-05T20:21:29.153Z,79.37
2023-03-05T20:23:58.726Z,79.76
2023-03-05T20:26:26.714Z,80.27
2023-03-05T20:28:54.860Z,79.98
2023-03-05T20:31:23.687Z,80.06
2023-03-05T20:33:50.291Z,80.35
2023-03-05T20:36:16.881Z,80.58
2023-03-05T20:38:45.177Z,80.35
2023-03-05T20:41:14.347Z,80.55
2023-03-05T20:43:46.520Z,79.78
2023-03-05T20:46:16.072Z,79.92
2023-03-05T20:48:42.842Z,80.16
2023-03-05T20:51:14.723Z,80.41
2023-03-05T20:53:41.818Z,80.57
2023-03-05T20:56:08.384Z,80.07
2023-03-05T20:58:34.989Z,80.46
2023-03-05T21:01:01.602Z,80.01
2023-03-05T21:03:28.139Z,81.05
2023-03-05T21:05:56.507Z,81.34
2023-03-05T21:08:23.750Z,80.78
2023-03-05T21:10:50.728Z,81.11
2023-03-05T21:13:17.241Z,80.77
2023-03-05T21:15:43.753Z,81.12
2023-03-05T21:18:10.606Z,81.32
2023-03-05T21:20:37.138Z,81.21
2023-03-05T21:23:04.250Z,81.34
2023-03-05T21:25:32.733Z,81.81
2023-03-05T21:28:18.772Z,81.58
2023-03-05T21:30:48.516Z,83.12
2023-03-05T21:33:18.225Z,83.06
2023-03-05T21:35:45.249Z,83.27
2023-03-05T21:38:12.941Z,83.84
2023-03-05T21:40:45.317Z,83.39
2023-03-05T21:43:13.190Z,83.45
2023-03-05T21:45:40.478Z,83.62
2023-03-05T21:48:07.959Z,83.50
2023-03-05T21:50:35.350Z,83.34
2023-03-05T21:53:02.584Z,83.60
2023-03-05T21:56:25.231Z,83.39
2023-03-05T21:58:52.628Z,83.44
2023-03-05T22:01:21.786Z,83.97
2023-03-05T22:03:49.056Z,84.06
2023-03-05T22:06:19.972Z,83.85
2023-03-05T22:08:47.272Z,83.89
2023-03-05T22:11:16.505Z,82.91
2023-03-05T22:13:43.203Z,84.14
2023-03-05T22:16:10.263Z,83.67
2023-03-05T22:18:39.702Z,83.69
2023-03-05T22:21:22.265Z,83.99
2023-03-05T22:23:49.750Z,84.24
2023-03-05T22:26:16.328Z,84.63
2023-03-05T22:28:42.919Z,84.88
2023-03-05T22:31:10.360Z,84.66
2023-03-05T22:33:37.591Z,84.81
2023-03-05T22:36:09.626Z,84.93
2023-03-05T22:38:36.222Z,83.89
2023-03-05T22:41:08.381Z,82.98
2023-03-05T22:43:35.192Z,82.88
2023-03-05T22:46:16.145Z,82.09
2023-03-05T22:48:43.662Z,81.81
2023-03-05T22:51:11.376Z,82.55
2023-03-05T22:53:39.179Z,81.77
2023-03-05T22:56:16.297Z,81.70
2023-03-05T22:58:43.237Z,83.21
2023-03-05T23:01:18.492Z,82.82
2023-03-05T23:04:59.289Z,83.45
2023-03-05T23:07:33.206Z,84.39
2023-03-05T23:10:26.918Z,84.02
2023-03-05T23:12:56.630Z,85.21
2023-03-05T23:15:32.731Z,86.05
2023-03-05T23:17:59.527Z,86.10
2023-03-05T23:20:29.264Z,86.04
2023-03-05T23:22:56.475Z,86.72
2023-03-05T23:25:25.529Z,86.76
2023-03-05T23:27:52.150Z,87.68
2023-03-05T23:30:39.433Z,87.78
2023-03-05T23:33:11.905Z,88.44
2023-03-05T23:35:50.449Z,88.58
2023-03-05T23:38:17.097Z,88.98
2023-03-05T23:40:49.897Z,89.08
2023-03-05T23:43:17.965Z,89.10
2023-03-05T23:45:47.998Z,90.39
2023-03-05T23:48:15.745Z,90.55
2023-03-05T23:50:44.519Z,90.59
2023-03-05T23:53:19.545Z,91.31
2023-03-05T23:55:47.021Z,91.08
2023-03-05T23:58:14.732Z,91.21
